createdAt,value
2019-01-11T00:00:49.799Z,69.87
2019-01-11T00:03:19.205Z,73.20
2019-01-11T00:05:48.363Z,71.90
2019-01-11T00:08:17.602Z,66.90
2019-01-11T00:10:46.792Z,68.47
2019-01-11T00:13:16.019Z,64.80
2019-01-11T00:15:45.264Z,70.67
2019-01-11T00:18:14.549Z,72.80
2019-01-11T00:20:43.791Z,75.13
2019-01-11T00:23:13.076Z,69.80
2019-01-11T00:25:42.348Z,78.33
2019-01-11T00:28:11.576Z,77.13
2019-01-11T00:30:40.800Z,70.43
2019-01-11T00:33:10.004Z,84.97
2019-01-11T00:35:39.279Z,76.70
2019-01-11T00:38:08.528Z,74.43
2019-01-11T00:40:37.728Z,66.67
2019-01-11T00:43:06.936Z,72.07
2019-01-11T00:45:36.196Z,80.00
2019-01-11T00:48:05.661Z,71.57
2019-01-11T00:50:34.892Z,82.20
2019-01-11T00:53:04.127Z,77.80
2019-01-11T00:55:33.432Z,80.37
2019-01-11T00:58:02.647Z,67.37
2019-01-11T01:00:31.848Z,71.37
2019-01-11T01:03:01.063Z,74.33
2019-01-11T01:05:30.266Z,78.50
2019-01-11T01:07:59.446Z,69.73
2019-01-11T01:10:28.668Z,62.43
2019-01-11T01:12:57.999Z,65.63
2019-01-11T01:15:27.183Z,59.93
2019-01-11T01:17:56.377Z,59.30
2019-01-11T01:20:25.680Z,59.67
2019-01-11T01:22:54.905Z,66.97
2019-01-11T01:25:24.112Z,59.20
2019-01-11T01:27:53.347Z,61.90
2019-01-11T01:30:22.515Z,60.67
2019-01-11T01:32:51.777Z,57.83
2019-01-11T01:35:21.012Z,60.73
2019-01-11T01:37:50.191Z,58.03
2019-01-11T01:40:19.440Z,47.73
2019-01-11T01:42:48.671Z,50.67
2019-01-11T01:45:18.293Z,48.77
2019-01-11T01:47:47.484Z,48.53
2019-01-11T01:50:16.807Z,47.97
2019-01-11T01:52:46.023Z,48.53
2019-01-11T01:55:15.824Z,43.27
2019-01-11T01:57:45.042Z,47.07
2019-01-11T02:00:17.224Z,52.07
2019-01-11T02:02:47.606Z,48.10
2019-01-11T02:05:17.204Z,47.70
2019-01-11T02:07:46.375Z,44.17
2019-01-11T02:10:16.008Z,43.53
2019-01-11T02:12:45.260Z,43.60
2019-01-11T02:15:14.559Z,46.07
2019-01-11T02:17:43.779Z,42.70
2019-01-11T02:20:15.822Z,44.20
2019-01-11T02:22:45.562Z,44.90
2019-01-11T02:25:15.895Z,48.23
2019-01-11T02:27:45.100Z,32.17
2019-01-11T02:30:19.874Z,40.17
2019-01-11T02:32:53.038Z,43.63
2019-01-11T02:35:20.177Z,46.27
2019-01-11T02:37:49.638Z,50.77
2019-01-11T02:40:18.869Z,52.77
2019-01-11T02:42:48.073Z,51.47
2019-01-11T02:45:19.319Z,51.13
2019-01-11T02:47:48.551Z,57.63
2019-01-11T02:50:17.837Z,51.83
2019-01-11T02:52:47.173Z,56.97
2019-01-11T02:55:16.369Z,59.60
2019-01-11T02:57:45.527Z,58.53
2019-01-11T03:00:17.621Z,57.03
2019-01-11T03:02:47.143Z,57.73
2019-01-11T03:05:16.479Z,57.63
2019-01-11T03:07:46.398Z,65.20
2019-01-11T03:10:22.739Z,68.20
2019-01-11T03:12:51.920Z,68.47
2019-01-11T03:15:21.660Z,68.60
2019-01-11T03:17:50.996Z,69.80
2019-01-11T03:20:20.364Z,73.30
2019-01-11T03:22:49.548Z,80.47
2019-01-11T03:25:18.822Z,77.30
2019-01-11T03:27:48.176Z,72.13
2019-01-11T03:30:19.385Z,84.13
2019-01-11T03:32:48.686Z,73.03
2019-01-11T03:35:22.495Z,82.90
2019-01-11T03:37:52.187Z,77.83
2019-01-11T03:40:23.236Z,94.40
2019-01-11T03:42:52.691Z,78.53
2019-01-11T03:45:23.687Z,87.37
2019-01-11T03:47:52.936Z,87.93
2019-01-11T03:50:23.010Z,71.60
2019-01-11T03:52:52.247Z,73.70
2019-01-11T03:55:21.584Z,91.20
2019-01-11T03:57:50.779Z,75.37
2019-01-11T04:00:22.307Z,99.87
2019-01-11T04:02:51.541Z,81.90
2019-01-11T04:05:20.859Z,90.23
2019-01-11T04:07:50.296Z,99.83
2019-01-11T04:10:21.353Z,98.13
2019-01-11T04:12:50.553Z,116.43
2019-01-11T04:15:20.532Z,92.67
2019-01-11T04:18:07.770Z,119.47
2019-01-11T04:20:36.952Z,104.50
2019-01-11T04:23:06.149Z,107.23
2019-01-11T04:25:45.809Z,100.87
2019-01-11T04:28:15.021Z,99.33
2019-01-11T04:30:44.251Z,100.77
2019-01-11T04:33:13.537Z,123.60
2019-01-11T04:35:42.805Z,108.47
2019-01-11T04:38:12.025Z,117.90
2019-01-11T04:40:41.253Z,111.40
2019-01-11T04:43:10.482Z,121.20
2019-01-11T04:45:39.677Z,114.17
2019-01-11T04:48:08.973Z,136.23
2019-01-11T04:50:38.198Z,128.23
2019-01-11T04:53:07.442Z,141.60
2019-01-11T04:55:36.664Z,121.73
2019-01-11T04:58:06.812Z,136.67
2019-01-11T05:00:36.116Z,150.30
2019-01-11T05:03:05.361Z,149.30
2019-01-11T05:05:34.600Z,145.83
2019-01-11T05:08:03.808Z,74.13
2019-01-11T05:10:33.052Z,137.73
2019-01-11T05:13:30.407Z,140.90
2019-01-11T05:15:59.724Z,144.63
2019-01-11T05:18:29.027Z,141.50
2019-01-11T05:20:58.333Z,159.97
2019-01-11T05:23:27.533Z,168.43
2019-01-11T05:25:57.708Z,140.67
2019-01-11T05:28:27.214Z,159.73
2019-01-11T05:30:57.721Z,180.87
2019-01-11T05:33:26.936Z,161.57
2019-01-11T05:35:56.176Z,151.37
2019-01-11T05:38:25.413Z,158.50
2019-01-11T05:40:54.669Z,173.67
2019-01-11T05:43:23.881Z,163.27
2019-01-11T05:45:53.224Z,165.83
2019-01-11T05:48:22.768Z,171.27
2019-01-11T05:50:52.483Z,188.00
2019-01-11T05:53:21.717Z,173.80
2019-01-11T05:55:52.540Z,171.03
2019-01-11T05:58:38.948Z,177.23
2019-01-11T06:01:08.172Z,168.53
2019-01-11T06:03:37.401Z,178.63
2019-01-11T06:06:07.293Z,175.07
2019-01-11T06:08:37.257Z,170.33
2019-01-11T06:11:06.478Z,160.70
2019-01-11T06:13:35.695Z,177.60
2019-01-11T06:16:05.958Z,182.27
2019-01-11T06:18:35.168Z,158.43
2019-01-11T06:21:04.388Z,170.47
2019-01-11T06:23:33.616Z,193.17
2019-01-11T06:26:02.822Z,170.63
2019-01-11T06:28:32.145Z,163.67
2019-01-11T06:31:01.356Z,165.67
2019-01-11T06:33:30.597Z,173.13
2019-01-11T06:36:00.072Z,145.03
2019-01-11T06:38:29.411Z,150.93
2019-01-11T06:40:58.633Z,156.27
2019-01-11T06:43:27.940Z,146.70
2019-01-11T06:45:57.135Z,148.83
2019-01-11T06:48:51.377Z,135.90
2019-01-11T06:51:20.609Z,135.87
2019-01-11T06:53:49.852Z,138.33
2019-01-11T06:56:19.104Z,143.43
2019-01-11T06:58:48.336Z,141.23
2019-01-11T07:01:17.551Z,135.27
2019-01-11T07:03:46.800Z,122.20
2019-01-11T07:06:16.010Z,132.47
2019-01-11T07:08:45.625Z,142.37
2019-01-11T07:11:14.949Z,145.43
2019-01-11T07:13:44.175Z,130.40
2019-01-11T07:16:13.858Z,129.77
2019-01-11T07:18:43.100Z,125.10
2019-01-11T07:21:12.483Z,125.57
2019-01-11T07:23:41.841Z,111.93
2019-01-11T07:26:11.225Z,115.00
2019-01-11T07:28:40.480Z,120.63
2019-01-11T07:31:19.416Z,113.30
2019-01-11T07:33:48.713Z,128.37
2019-01-11T07:36:32.920Z,119.87
2019-01-11T07:39:04.517Z,108.30
2019-01-11T07:41:33.761Z,112.13
2019-01-11T07:44:03.027Z,113.60
2019-01-11T07:46:32.360Z,114.60
2019-01-11T07:49:01.579Z,131.80
2019-01-11T07:51:30.787Z,134.00
2019-01-11T07:54:00.034Z,128.27
2019-01-11T07:56:29.373Z,135.60
2019-01-11T07:58:58.668Z,121.80
2019-01-11T08:01:29.624Z,130.63
2019-01-11T08:03:58.895Z,121.23
2019-01-11T08:06:28.136Z,121.70
2019-01-11T08:08:57.337Z,115.10
2019-01-11T08:11:26.576Z,136.93
2019-01-11T08:13:55.836Z,105.57
2019-01-11T08:16:25.188Z,104.47
2019-01-11T08:18:54.384Z,106.53
2019-01-11T08:21:23.724Z,99.17
2019-01-11T08:23:52.934Z,87.20
2019-01-11T08:26:22.265Z,84.40
2019-01-11T08:28:51.547Z,84.63
2019-01-11T08:31:20.784Z,79.43
2019-01-11T08:33:50.109Z,76.57
2019-01-11T08:36:19.300Z,73.80
2019-01-11T08:38:48.568Z,68.27
2019-01-11T08:41:18.713Z,56.83
2019-01-11T08:43:47.985Z,61.93
2019-01-11T08:46:17.280Z,50.80
2019-01-11T08:48:46.489Z,47.83
2019-01-11T08:51:17.491Z,65.47
2019-01-11T08:53:46.824Z,45.73
2019-01-11T08:56:16.090Z,45.83
2019-01-11T08:58:46.218Z,43.50
2019-01-11T09:01:15.493Z,43.10
2019-01-11T09:03:45.069Z,49.37
2019-01-11T09:06:14.321Z,37.40
2019-01-11T09:08:43.528Z,42.13
2019-01-11T09:11:12.761Z,41.37
2019-01-11T09:13:42.062Z,50.10
2019-01-11T09:16:11.280Z,35.53
2019-01-11T09:18:46.235Z,36.70
2019-01-11T09:21:15.458Z,33.20
2019-01-11T09:23:44.732Z,33.80
2019-01-11T09:26:13.965Z,33.20
2019-01-11T09:28:43.212Z,33.07
2019-01-11T09:31:12.424Z,23.63
2019-01-11T09:33:41.703Z,25.60
2019-01-11T09:36:10.892Z,20.87
2019-01-11T09:38:40.136Z,27.20
2019-01-11T09:41:09.508Z,18.77
2019-01-11T09:43:38.740Z,24.67
2019-01-11T09:46:07.979Z,18.97
2019-01-11T09:48:37.363Z,21.53
2019-01-11T09:51:06.560Z,14.93
2019-01-11T09:53:35.882Z,15.60
2019-01-11T09:56:05.436Z,19.77
2019-01-11T09:58:35.328Z,18.50
2019-01-11T10:01:04.564Z,18.93
2019-01-11T10:03:33.800Z,21.73
2019-01-11T10:06:03.101Z,15.03
2019-01-11T10:08:32.359Z,19.90
2019-01-11T10:11:01.578Z,18.67
2019-01-11T10:13:30.805Z,15.53
2019-01-11T10:16:00.045Z,12.67
2019-01-11T10:18:29.300Z,21.70
2019-01-11T10:20:58.508Z,15.07
2019-01-11T10:23:27.730Z,20.30
2019-01-11T10:25:56.989Z,11.77
2019-01-11T10:28:26.211Z,13.47
2019-01-11T10:31:00.642Z,19.13
2019-01-11T10:33:26.400Z,11.33
2019-01-11T10:35:55.653Z,12.60
2019-01-11T10:38:24.864Z,8.37
2019-01-11T10:40:54.077Z,11.40
2019-01-11T10:43:23.447Z,9.93
2019-01-11T10:45:52.760Z,12.63
2019-01-11T10:48:21.994Z,8.57
2019-01-11T10:50:51.284Z,11.70
2019-01-11T10:53:20.662Z,14.83
2019-01-11T10:55:50.113Z,9.43
2019-01-11T10:58:19.353Z,6.23
2019-01-11T11:00:48.798Z,10.13
2019-01-11T11:03:18.215Z,13.03
2019-01-11T11:05:47.486Z,9.50
2019-01-11T11:08:16.759Z,11.47
2019-01-11T11:10:46.091Z,10.90
2019-01-11T11:13:15.357Z,10.63
2019-01-11T11:15:47.147Z,10.83
2019-01-11T11:18:16.372Z,11.83
2019-01-11T11:20:45.569Z,11.17
2019-01-11T11:23:14.804Z,7.97
2019-01-11T11:25:44.020Z,7.93
2019-01-11T11:28:13.313Z,7.70
2019-01-11T11:30:42.502Z,9.30
2019-01-11T11:33:11.875Z,5.40
2019-01-11T11:35:41.187Z,10.20
2019-01-11T11:38:10.412Z,3.23
2019-01-11T11:40:39.696Z,10.10
2019-01-11T11:43:09.121Z,9.30
2019-01-11T11:45:38.479Z,7.97
2019-01-11T11:48:07.704Z,20.43
2019-01-11T11:50:37.040Z,14.20
2019-01-11T11:53:06.256Z,12.63
2019-01-11T11:55:35.572Z,8.87
2019-01-11T11:58:04.801Z,10.70
2019-01-11T12:00:34.006Z,9.20
2019-01-11T12:03:03.213Z,9.97
2019-01-11T12:05:32.434Z,7.10
2019-01-11T12:08:01.684Z,8.83
2019-01-11T12:10:30.913Z,12.10
2019-01-11T12:13:00.104Z,9.50
2019-01-11T12:15:29.404Z,12.60
2019-01-11T12:17:58.697Z,5.57
2019-01-11T12:20:32.667Z,11.13
2019-01-11T12:23:01.868Z,11.20
2019-01-11T12:25:31.120Z,15.87
2019-01-11T12:28:00.380Z,8.20
2019-01-11T12:30:29.704Z,8.63
2019-01-11T12:32:58.905Z,12.03
2019-01-11T12:35:28.200Z,6.17
2019-01-11T12:37:57.605Z,6.83
2019-01-11T12:40:26.768Z,7.77
2019-01-11T12:42:56.040Z,8.07
2019-01-11T12:45:25.372Z,7.33
2019-01-11T12:47:54.696Z,7.13
2019-01-11T12:50:27.509Z,7.37
2019-01-11T12:52:56.707Z,6.17
2019-01-11T12:55:25.928Z,12.03
2019-01-11T12:57:55.138Z,10.63
2019-01-11T13:00:24.340Z,6.17
2019-01-11T13:02:53.549Z,7.07
2019-01-11T13:05:22.878Z,7.60
2019-01-11T13:07:52.103Z,9.87
2019-01-11T13:10:21.820Z,6.03
2019-01-11T13:12:51.013Z,9.90
2019-01-11T13:15:22.070Z,8.50
2019-01-11T13:17:51.269Z,5.13
2019-01-11T13:20:21.707Z,8.27
2019-01-11T13:22:51.320Z,9.20
2019-01-11T13:25:20.674Z,5.83
2019-01-11T13:27:49.938Z,7.03
2019-01-11T13:30:20.044Z,6.03
2019-01-11T13:32:49.312Z,7.67
2019-01-11T13:35:18.613Z,7.53
2019-01-11T13:37:48.104Z,10.93
2019-01-11T13:40:22.570Z,11.70
2019-01-11T13:42:51.948Z,7.23
2019-01-11T13:45:22.497Z,10.70
2019-01-11T13:47:52.052Z,13.43
2019-01-11T13:50:40.480Z,13.50
2019-01-11T13:53:12.052Z,16.10
2019-01-11T13:55:41.372Z,15.77
2019-01-11T13:58:11.147Z,26.43
2019-01-11T14:00:40.687Z,15.80
2019-01-11T14:03:10.026Z,28.23
2019-01-11T14:05:39.262Z,21.40
2019-01-11T14:08:08.500Z,26.13
2019-01-11T14:10:37.744Z,20.03
2019-01-11T14:13:07.008Z,26.60
2019-01-11T14:15:36.294Z,23.10
2019-01-11T14:18:06.660Z,22.37
2019-01-11T14:20:36.181Z,20.10
2019-01-11T14:23:05.600Z,32.50
2019-01-11T14:25:34.844Z,19.07
2019-01-11T14:28:04.088Z,22.00
2019-01-11T14:30:33.363Z,30.20
2019-01-11T14:33:02.596Z,32.17
2019-01-11T14:35:31.813Z,18.93
2019-01-11T14:38:01.045Z,29.77
2019-01-11T14:40:32.753Z,23.93
2019-01-11T14:43:03.344Z,36.10
2019-01-11T14:45:32.672Z,23.83
2019-01-11T14:48:01.996Z,27.13
2019-01-11T14:50:31.212Z,29.60
2019-01-11T14:53:00.572Z,22.90
2019-01-11T14:55:29.861Z,28.27
2019-01-11T14:58:02.651Z,28.83
2019-01-11T15:00:32.822Z,26.60
2019-01-11T15:03:02.466Z,25.30
2019-01-11T15:05:32.287Z,31.17
2019-01-11T15:08:01.885Z,25.33
2019-01-11T15:10:31.997Z,28.63
2019-01-11T15:13:02.346Z,25.53
2019-01-11T15:15:31.959Z,26.03
2019-01-11T15:18:01.170Z,31.63
2019-01-11T15:20:32.106Z,29.50
2019-01-11T15:23:01.981Z,28.07
2019-01-11T15:25:32.374Z,26.07
2019-01-11T15:28:01.857Z,42.20
2019-01-11T15:30:32.190Z,30.63
2019-01-11T15:33:01.743Z,31.97
2019-01-11T15:35:31.829Z,29.40
2019-01-11T15:38:01.936Z,38.37
2019-01-11T15:40:36.487Z,39.10
2019-01-11T15:43:04.251Z,30.97
2019-01-11T15:45:34.314Z,29.73
2019-01-11T15:48:07.190Z,33.13
2019-01-11T15:51:05.436Z,37.43
2019-01-11T15:53:36.879Z,38.53
2019-01-11T15:56:08.629Z,28.90
2019-01-11T15:58:37.925Z,29.47
2019-01-11T16:01:07.145Z,42.07
2019-01-11T16:03:36.370Z,30.43
2019-01-11T16:06:40.799Z,29.73
2019-01-11T16:10:02.516Z,35.83
2019-01-11T16:13:10.236Z,38.80
2019-01-11T16:16:22.420Z,34.80
2019-01-11T16:18:53.268Z,37.57
2019-01-11T16:21:22.466Z,39.73
2019-01-11T16:23:51.689Z,33.77
2019-01-11T16:26:20.940Z,39.67
2019-01-11T16:28:50.251Z,34.47
2019-01-11T16:31:19.476Z,45.83
2019-01-11T16:33:48.708Z,37.63
2019-01-11T16:36:17.927Z,40.03
2019-01-11T16:38:47.170Z,37.83
2019-01-11T16:41:16.376Z,40.23
2019-01-11T16:43:45.754Z,42.30
2019-01-11T16:46:14.983Z,30.53
2019-01-11T16:48:44.260Z,49.03
2019-01-11T16:51:13.444Z,42.80
2019-01-11T16:53:42.687Z,56.80
2019-01-11T16:56:11.885Z,44.77
2019-01-11T16:58:41.836Z,51.63
2019-01-11T17:01:11.005Z,49.33
2019-01-11T17:03:40.259Z,57.40
2019-01-11T17:06:10.349Z,49.43
2019-01-11T17:08:39.575Z,45.47
2019-01-11T17:11:08.856Z,56.47
2019-01-11T17:13:40.612Z,37.47
2019-01-11T17:16:08.992Z,44.93
2019-01-11T17:18:38.259Z,54.97
2019-01-11T17:21:07.557Z,41.37
2019-01-11T17:23:36.761Z,47.93
2019-01-11T17:26:05.986Z,43.07
2019-01-11T17:28:35.249Z,45.43
2019-01-11T17:31:04.862Z,53.93
2019-01-11T17:33:34.057Z,60.50
2019-01-11T17:36:03.272Z,56.17
2019-01-11T17:38:32.488Z,45.77
2019-01-11T17:41:01.734Z,51.27
2019-01-11T17:43:30.984Z,48.80
2019-01-11T17:46:00.282Z,47.57
2019-01-11T17:48:29.505Z,48.57
2019-01-11T17:50:58.733Z,59.40
2019-01-11T17:53:27.944Z,57.63
2019-01-11T17:55:57.280Z,43.80
2019-01-11T17:58:26.665Z,60.17
2019-01-11T18:00:55.977Z,47.23
2019-01-11T18:03:25.439Z,58.20
2019-01-11T18:05:54.734Z,63.90
2019-01-11T18:08:23.993Z,54.10
2019-01-11T18:10:53.232Z,50.83
2019-01-11T18:13:22.473Z,52.33
2019-01-11T18:15:51.729Z,58.83
2019-01-11T18:18:20.940Z,43.40
2019-01-11T18:20:50.880Z,57.33
2019-01-11T18:23:20.092Z,45.33
2019-01-11T18:25:49.328Z,42.23
2019-01-11T18:28:18.538Z,48.43
2019-01-11T18:30:47.868Z,38.73
2019-01-11T18:33:17.072Z,60.70
2019-01-11T18:35:46.290Z,45.13
2019-01-11T18:38:15.508Z,56.83
2019-01-11T18:40:44.741Z,49.40
2019-01-11T18:43:13.957Z,53.30
2019-01-11T18:45:43.217Z,38.80
2019-01-11T18:48:12.433Z,53.73
2019-01-11T18:50:41.667Z,57.43
2019-01-11T18:53:13.910Z,51.37
2019-01-11T18:55:41.832Z,59.47
2019-01-11T18:58:11.050Z,56.60
2019-01-11T19:00:40.392Z,48.77
2019-01-11T19:03:09.577Z,56.93
2019-01-11T19:05:38.817Z,51.00
2019-01-11T19:08:08.036Z,66.33
2019-01-11T19:10:37.236Z,56.63
2019-01-11T19:13:06.564Z,47.63
2019-01-11T19:15:35.784Z,53.33
2019-01-11T19:18:04.970Z,50.10
2019-01-11T19:20:34.192Z,56.10
2019-01-11T19:23:04.244Z,53.63
2019-01-11T19:25:33.513Z,57.67
2019-01-11T19:28:02.707Z,61.43
2019-01-11T19:30:31.920Z,59.53
2019-01-11T19:33:01.180Z,60.00
2019-01-11T19:35:30.526Z,53.13
2019-01-11T19:37:59.742Z,53.20
2019-01-11T19:40:28.983Z,56.47
2019-01-11T19:42:58.249Z,69.50
2019-01-11T19:45:27.524Z,53.97
2019-01-11T19:47:56.735Z,50.87
2019-01-11T19:50:26.261Z,60.83
2019-01-11T19:52:55.495Z,56.20
2019-01-11T19:55:24.714Z,52.73
2019-01-11T19:57:53.941Z,57.30
2019-01-11T20:00:28.260Z,61.53
2019-01-11T20:02:57.532Z,59.37
2019-01-11T20:05:27.625Z,56.67
2019-01-11T20:07:56.851Z,60.40
2019-01-11T20:10:33.637Z,50.70
2019-01-11T20:13:02.874Z,55.73
2019-01-11T20:15:32.413Z,46.00
2019-01-11T20:18:01.682Z,44.90
2019-01-11T20:20:30.924Z,59.13
2019-01-11T20:23:02.421Z,53.07
2019-01-11T20:25:31.028Z,47.63
2019-01-11T20:28:00.303Z,43.97
2019-01-11T20:30:29.729Z,42.57
2019-01-11T20:32:58.933Z,61.63
2019-01-11T20:35:28.404Z,50.43
2019-01-11T20:37:57.669Z,57.87
2019-01-11T20:40:26.965Z,50.47
2019-01-11T20:42:56.172Z,42.73
2019-01-11T20:45:25.476Z,48.20
2019-01-11T20:47:54.699Z,47.13
2019-01-11T20:50:25.931Z,58.80
2019-01-11T20:52:55.701Z,51.43
2019-01-11T20:55:25.036Z,55.40
2019-01-11T20:57:54.404Z,55.03
2019-01-11T21:00:28.671Z,60.50
2019-01-11T21:02:58.045Z,46.73
2019-01-11T21:05:28.322Z,60.53
2019-01-11T21:07:57.670Z,51.17
2019-01-11T21:10:27.199Z,54.00
2019-01-11T21:12:56.382Z,48.53
2019-01-11T21:15:25.852Z,46.30
2019-01-11T21:17:55.049Z,42.30
2019-01-11T21:20:24.348Z,42.47
2019-01-11T21:22:53.550Z,56.10
2019-01-11T21:25:22.792Z,46.83
2019-01-11T21:27:52.242Z,53.67
2019-01-11T21:30:31.330Z,59.73
2019-01-11T21:33:00.993Z,43.97
2019-01-11T21:35:30.412Z,42.43
2019-01-11T21:37:59.623Z,34.97
2019-01-11T21:40:28.856Z,41.10
2019-01-11T21:42:58.215Z,44.67
2019-01-11T21:45:30.138Z,45.30
2019-01-11T21:48:01.278Z,41.83
2019-01-11T21:50:30.485Z,53.60
2019-01-11T21:52:59.741Z,39.80
2019-01-11T21:55:29.000Z,37.43
2019-01-11T21:57:58.261Z,43.50
2019-01-11T22:00:39.321Z,45.13
2019-01-11T22:03:11.814Z,49.93
2019-01-11T22:05:41.026Z,43.03
2019-01-11T22:08:10.257Z,38.47
2019-01-11T22:10:39.611Z,44.63
2019-01-11T22:13:08.818Z,48.07
2019-01-11T22:15:38.048Z,47.97
2019-01-11T22:18:07.268Z,48.20
2019-01-11T22:20:36.503Z,44.20
2019-01-11T22:23:05.749Z,44.57
2019-01-11T22:25:34.939Z,56.60
2019-01-11T22:28:04.552Z,44.87
2019-01-11T22:30:33.786Z,36.77
2019-01-11T22:33:03.035Z,42.33
2019-01-11T22:35:32.274Z,34.53
2019-01-11T22:38:01.477Z,46.43
2019-01-11T22:40:30.700Z,53.17
2019-01-11T22:43:00.600Z,47.90
2019-01-11T22:45:30.092Z,49.33
2019-01-11T22:47:59.333Z,43.63
2019-01-11T22:50:28.552Z,47.77
2019-01-11T22:52:57.764Z,48.80
2019-01-11T22:55:26.959Z,42.57
2019-01-11T22:57:56.165Z,51.57
2019-01-11T23:00:45.326Z,38.47
2019-01-11T23:03:18.445Z,44.20
2019-01-11T23:05:47.920Z,47.73
2019-01-11T23:08:20.226Z,38.50
2019-01-11T23:11:17.304Z,33.20
2019-01-11T23:13:46.501Z,42.47
2019-01-11T23:16:23.549Z,44.20
2019-01-11T23:18:54.565Z,49.23
2019-01-11T23:21:23.784Z,45.17
2019-01-11T23:23:53.020Z,45.90
2019-01-11T23:26:22.204Z,38.27
2019-01-11T23:28:51.486Z,41.87
2019-01-11T23:31:20.740Z,43.40
2019-01-11T23:33:50.026Z,39.37
2019-01-11T23:36:19.230Z,44.53
2019-01-11T23:38:48.560Z,32.10
2019-01-11T23:41:17.792Z,37.27
2019-01-11T23:43:47.004Z,39.03
2019-01-11T23:46:16.243Z,42.83
2019-01-11T23:48:45.462Z,43.47
2019-01-11T23:51:14.668Z,43.07
2019-01-11T23:53:43.896Z,42.10
2019-01-11T23:56:13.128Z,36.57
2019-01-11T23:58:42.328Z,48.43
